Terminal Aerodrome Forecast
Issued by NWS

Home | Current Version | Previous Version | Text Only | Print | Product List | Glossary On
Versions: 1 2 3 4 5 6 7 8 9 10 11 12 13 14 15 16 17 18 19 20 21 22 23 24 25 26 27 28 29 30 31 32 33 34 35 36 37 38
000
FTUS46 KOTX 251723
TAFMWH
TAF
KMWH 251723Z 2518/2618 VRB04KT P6SM SCT070
     FM252000 22008G14KT P6SM VCSH BKN070 BKN100
     FM260200 24006KT P6SM SCT100 BKN150
     FM260800 30004KT P6SM VCSH BKN080 OVC120
     FM261500 VRB04KT P6SM SCT080 BKN150=

USA.gov is the U.S. government's official web portal to all federal, state and local government web resources and services.